Time;durP1;ratioP1;P1;durP2;ratioP2;P2;SDS_P1;SDS_P2;PMS_P1;PMS_P2;Temp;Humidity;BMP_temperature;BMP_pressure;BME280_temperature;BME280_humidity;BME280_pressure;Samples;Min_cycle;Max_cycle;Signal;HPM_P1;HPM_P2
2023/10/18 00:01:57;;;;;;;4.53;4.22;;;6.10;99.90;;;;;;5026809;28;20549;-84
2023/10/18 00:04:23;;;;;;;5.07;4.78;;;6.20;99.90;;;;;;5024433;28;20052;-84
2023/10/18 00:06:54;;;;;;;5.22;4.90;;;6.20;99.90;;;;;;5022949;28;20041;-84
2023/10/18 00:12:07;;;;;;;6.38;5.97;;;6.20;99.90;;;;;;5056269;28;20060;-85
2023/10/18 00:14:32;;;;;;;5.60;5.22;;;6.20;99.90;;;;;;5027426;28;20048;-84
2023/10/18 00:16:59;;;;;;;6.35;5.95;;;6.20;99.90;;;;;;5039661;28;20061;-84
2023/10/18 00:19:26;;;;;;;5.95;5.55;;;6.30;99.90;;;;;;5028767;28;20076;-84
2023/10/18 00:21:52;;;;;;;5.50;5.15;;;6.20;99.90;;;;;;5023653;28;20055;-84
2023/10/18 00:24:18;;;;;;;4.40;4.10;;;6.10;99.90;;;;;;5025381;28;20792;-84
2023/10/18 00:26:45;;;;;;;4.95;4.65;;;6.30;99.90;;;;;;5029297;28;20039;-84
2023/10/18 00:29:12;;;;;;;5.20;4.88;;;6.50;99.90;;;;;;5025069;28;20049;-84
2023/10/18 00:31:37;;;;;;;6.00;5.60;;;6.40;99.90;;;;;;5024855;28;20040;-84
2023/10/18 00:34:06;;;;;;;5.07;4.78;;;6.30;99.90;;;;;;5023639;28;20402;-84
2023/10/18 00:36:32;;;;;;;5.72;5.35;;;6.20;99.90;;;;;;5054721;28;20528;-85
2023/10/18 00:38:58;;;;;;;6.13;5.72;;;6.10;99.90;;;;;;5041301;28;20079;-84
2023/10/18 00:41:32;;;;;;;5.75;5.38;;;6.00;99.90;;;;;;5024429;28;20041;-84
2023/10/18 00:43:58;;;;;;;6.20;5.80;;;5.90;99.90;;;;;;5010988;28;20068;-84
2023/10/18 00:46:25;;;;;;;6.68;6.25;;;6.20;99.90;;;;;;5026379;28;20041;-84
2023/10/18 00:48:51;;;;;;;6.10;5.70;;;6.50;99.90;;;;;;5060205;28;20053;-84
2023/10/18 00:51:18;;;;;;;6.93;6.47;;;6.40;99.90;;;;;;5026161;28;20040;-85
2023/10/18 00:53:46;;;;;;;6.13;5.72;;;5.90;99.90;;;;;;5032094;28;20135;-83
2023/10/18 00:56:15;;;;;;;6.20;5.80;;;6.20;99.90;;;;;;5047886;28;20056;-83
2023/10/18 00:58:41;;;;;;;6.53;6.10;;;6.20;99.90;;;;;;5012226;28;20037;-84
2023/10/18 01:01:11;;;;;;;5.72;5.35;;;5.80;99.90;;;;;;5058151;28;20045;-84
2023/10/18 01:03:38;;;;;;;5.93;5.53;;;5.90;99.90;;;;;;5030989;28;20056;-85
2023/10/18 01:06:21;;;;;;;5.85;5.45;;;6.00;99.90;;;;;;5026146;28;20107;-83
2023/10/18 01:08:48;;;;;;;6.55;6.13;;;6.40;99.90;;;;;;5015340;28;20048;-84
2023/10/18 01:11:14;;;;;;;6.18;5.78;;;6.00;99.90;;;;;;5025032;28;20072;-84
2023/10/18 01:13:42;;;;;;;6.10;5.70;;;6.40;99.90;;;;;;5030651;28;20066;-84
2023/10/18 01:16:22;;;;;;;6.43;6.03;;;6.30;99.90;;;;;;5067455;28;20051;-84
2023/10/18 01:18:49;;;;;;;6.50;6.07;;;5.90;99.90;;;;;;5028129;28;20131;-84
2023/10/18 01:21:18;;;;;;;6.68;6.25;;;6.30;99.90;;;;;;5069453;28;20045;-85
2023/10/18 01:23:49;;;;;;;5.85;5.45;;;6.50;99.90;;;;;;5031676;28;20041;-84
2023/10/18 01:26:15;;;;;;;6.07;5.68;;;5.90;99.90;;;;;;5034683;28;20054;-86
2023/10/18 01:28:42;;;;;;;6.72;6.28;;;5.90;99.90;;;;;;5028967;28;20105;-85
2023/10/18 01:31:09;;;;;;;6.25;5.85;;;5.80;99.90;;;;;;5059030;28;20041;-84
2023/10/18 01:33:46;;;;;;;6.57;6.15;;;6.00;99.90;;;;;;5031274;28;20577;-84
2023/10/18 01:36:15;;;;;;;6.53;6.10;;;5.90;99.90;;;;;;5025848;28;20053;-84
2023/10/18 01:38:51;;;;;;;6.78;6.32;;;5.80;99.90;;;;;;5032718;28;20048;-84
2023/10/18 01:41:29;;;;;;;6.97;6.50;;;6.30;99.90;;;;;;5029154;28;20037;-85
2023/10/18 01:44:06;;;;;;;6.55;6.13;;;6.00;99.90;;;;;;5013613;28;20198;-85
2023/10/18 01:46:36;;;;;;;6.88;6.40;;;5.90;99.90;;;;;;5032654;28;20465;-84
2023/10/18 01:49:06;;;;;;;6.88;6.40;;;5.90;99.90;;;;;;5032605;28;20041;-84
2023/10/18 01:51:33;;;;;;;6.28;5.88;;;6.10;99.90;;;;;;5029805;28;20057;-84
2023/10/18 01:54:05;;;;;;;6.82;6.35;;;6.40;99.90;;;;;;5031025;28;20056;-84
2023/10/18 01:56:31;;;;;;;7.00;6.53;;;6.40;99.90;;;;;;5028158;28;20128;-83
2023/10/18 01:58:57;;;;;;;6.43;6.00;;;6.50;99.90;;;;;;5034125;28;20556;-85
2023/10/18 02:01:23;;;;;;;7.13;6.63;;;6.10;99.90;;;;;;5016489;28;20135;-83
2023/10/18 02:03:51;;;;;;;6.75;6.28;;;6.10;99.90;;;;;;5034782;28;20045;-85
2023/10/18 02:06:17;;;;;;;6.47;5.97;;;6.30;99.90;;;;;;5028012;28;20044;-84
2023/10/18 02:08:43;;;;;;;6.50;6.07;;;6.10;99.90;;;;;;5029874;28;20162;-85
2023/10/18 02:11:09;;;;;;;7.18;6.68;;;6.50;99.90;;;;;;5064922;28;20401;-85
2023/10/18 02:13:41;;;;;;;6.65;6.20;;;6.00;99.90;;;;;;5027220;28;20118;-85
2023/10/18 02:16:14;;;;;;;6.93;6.45;;;6.10;99.90;;;;;;5032184;28;20043;-85
2023/10/18 02:18:40;;;;;;;7.03;6.53;;;6.30;99.90;;;;;;5031719;28;20037;-86
2023/10/18 02:21:05;;;;;;;7.75;7.25;;;6.50;99.90;;;;;;5033862;28;20037;-84
2023/10/18 02:23:34;;;;;;;7.13;6.63;;;6.10;99.90;;;;;;5032390;28;20122;-84
2023/10/18 02:26:30;;;;;;;7.20;6.70;;;6.20;99.90;;;;;;5029809;28;20075;-85
2023/10/18 02:28:52;;;;;;;7.05;6.55;;;6.60;99.90;;;;;;5030917;28;20053;-84
2023/10/18 02:31:21;;;;;;;7.40;6.90;;;6.40;99.90;;;;;;5029507;28;20053;-85
2023/10/18 02:33:53;;;;;;;6.88;6.40;;;6.50;99.90;;;;;;5035786;28;20041;-85
2023/10/18 02:36:23;;;;;;;7.32;6.82;;;6.10;99.90;;;;;;5030220;28;20052;-85
2023/10/18 02:38:49;;;;;;;7.10;6.60;;;6.40;99.90;;;;;;5033135;28;20044;-85
2023/10/18 02:41:19;;;;;;;7.35;6.85;;;6.10;99.90;;;;;;5030520;28;20049;-86
2023/10/18 02:43:51;;;;;;;7.07;6.57;;;6.60;99.90;;;;;;5032733;28;20134;-86
2023/10/18 02:46:26;;;;;;;6.93;6.45;;;6.10;99.90;;;;;;5033145;28;20045;-84
2023/10/18 02:48:53;;;;;;;7.07;6.57;;;6.60;99.90;;;;;;5059276;28;20438;-84
2023/10/18 02:51:24;;;;;;;7.03;6.53;;;6.50;99.90;;;;;;5029513;28;20128;-86
2023/10/18 02:53:51;;;;;;;6.93;6.43;;;6.10;99.90;;;;;;5030856;28;20052;-84
2023/10/18 02:56:17;;;;;;;7.07;6.57;;;6.50;99.90;;;;;;5028755;28;20045;-85
2023/10/18 02:58:50;;;;;;;7.05;6.55;;;6.20;99.90;;;;;;5036636;28;20068;-85
2023/10/18 03:01:19;;;;;;;7.50;7.00;;;6.60;99.90;;;;;;5027915;28;20072;-85
2023/10/18 03:03:54;;;;;;;7.50;7.00;;;6.20;99.90;;;;;;5034565;28;20047;-85
2023/10/18 03:06:24;;;;;;;7.40;6.90;;;6.00;99.90;;;;;;5043409;28;20044;-85
2023/10/18 03:08:50;;;;;;;7.15;6.65;;;6.20;99.90;;;;;;5012426;28;20139;-85
2023/10/18 03:11:20;;;;;;;7.25;6.75;;;6.60;99.90;;;;;;5062917;28;20044;-85
2023/10/18 03:13:48;;;;;;;7.75;7.25;;;6.50;99.90;;;;;;5027263;28;20037;-85
2023/10/18 03:18:44;;;;;;;7.10;6.60;;;6.50;99.90;;;;;;5027356;28;20144;-84
2023/10/18 03:21:20;;;;;;;7.45;6.95;;;6.40;99.90;;;;;;5029201;28;20106;-85
2023/10/18 03:23:50;;;;;;;6.85;6.35;;;6.10;99.90;;;;;;5065569;28;20048;-85
2023/10/18 03:26:22;;;;;;;7.25;6.75;;;6.10;99.90;;;;;;5027181;28;20047;-84
2023/10/18 03:28:51;;;;;;;6.88;6.38;;;6.20;99.90;;;;;;5059196;28;20109;-84
2023/10/18 03:31:34;;;;;;;6.30;5.90;;;6.50;99.90;;;;;;5031541;28;20056;-85
2023/10/18 03:34:01;;;;;;;7.05;6.55;;;6.10;99.90;;;;;;5025832;28;20368;-84
2023/10/18 03:36:31;;;;;;;6.20;5.80;;;6.20;99.90;;;;;;5028572;28;20106;-85
2023/10/18 03:39:00;;;;;;;6.70;6.25;;;6.20;99.90;;;;;;5058358;28;20051;-84
2023/10/18 03:41:32;;;;;;;7.07;6.57;;;6.30;99.90;;;;;;5027158;28;20107;-85
2023/10/18 03:44:06;;;;;;;6.50;6.07;;;6.10;99.90;;;;;;5031593;28;20529;-83
2023/10/18 03:46:47;;;;;;;6.40;6.00;;;6.50;99.90;;;;;;5025849;28;20128;-86
2023/10/18 03:49:25;;;;;;;5.53;5.15;;;6.50;99.90;;;;;;5017465;28;20049;-84
2023/10/18 03:51:54;;;;;;;6.72;6.25;;;6.50;99.90;;;;;;5026995;28;20132;-85
2023/10/18 03:54:23;;;;;;;6.47;6.05;;;6.40;99.90;;;;;;5026085;28;20052;-84
2023/10/18 03:56:52;;;;;;;6.05;5.65;;;6.30;99.90;;;;;;5031955;28;20049;-85
2023/10/18 03:59:19;;;;;;;6.40;6.00;;;6.40;99.90;;;;;;5031214;28;20117;-85
2023/10/18 04:04:36;;;;;;;6.25;5.85;;;6.20;99.90;;;;;;5027109;28;20045;-85
2023/10/18 04:07:13;;;;;;;5.82;5.43;;;6.20;99.90;;;;;;5030859;28;20505;-85
2023/10/18 04:10:06;;;;;;;6.15;5.75;;;6.30;99.90;;;;;;5010267;28;20525;-84
2023/10/18 04:12:32;;;;;;;6.95;6.45;;;6.20;99.90;;;;;;5025621;28;20132;-84
2023/10/18 04:15:19;;;;;;;5.97;5.57;;;6.40;99.90;;;;;;5026299;28;20091;-84
2023/10/18 04:17:44;;;;;;;6.35;5.95;;;6.10;99.90;;;;;;5010917;28;20041;-84
2023/10/18 04:22:39;;;;;;;5.85;5.45;;;6.40;99.90;;;;;;5027520;28;20560;-83
2023/10/18 04:25:25;;;;;;;5.63;5.22;;;6.30;99.90;;;;;;5027372;28;20056;-84
2023/10/18 04:27:57;;;;;;;5.97;5.57;;;6.10;99.90;;;;;;5026577;28;20162;-85
2023/10/18 04:30:24;;;;;;;5.60;5.20;;;6.30;99.90;;;;;;5026620;28;20059;-86
2023/10/18 04:33:00;;;;;;;5.57;5.18;;;6.40;99.90;;;;;;5008646;28;20120;-86
2023/10/18 04:35:32;;;;;;;5.18;4.85;;;6.30;99.90;;;;;;5008581;28;20130;-84
2023/10/18 04:37:58;;;;;;;5.85;5.45;;;6.20;99.90;;;;;;5025418;28;20044;-85
2023/10/18 04:40:28;;;;;;;5.53;5.15;;;6.00;99.90;;;;;;5025516;28;20052;-85
2023/10/18 04:42:57;;;;;;;5.53;5.15;;;6.20;99.90;;;;;;5008408;28;20437;-85
2023/10/18 04:45:23;;;;;;;5.32;4.97;;;6.00;99.90;;;;;;5030779;28;20457;-85
2023/10/18 04:48:06;;;;;;;5.18;4.85;;;6.10;99.90;;;;;;5011580;28;20794;-85
2023/10/18 04:50:38;;;;;;;5.20;4.90;;;5.90;99.90;;;;;;5033520;28;20187;-84
2023/10/18 04:53:12;;;;;;;5.05;4.75;;;6.20;99.90;;;;;;5032039;28;20135;-86
2023/10/18 04:55:41;;;;;;;4.78;4.47;;;6.30;99.90;;;;;;5028646;28;20080;-85
2023/10/18 04:58:07;;;;;;;4.72;4.43;;;5.90;99.90;;;;;;5031394;28;20140;-85
2023/10/18 05:00:35;;;;;;;4.82;4.53;;;6.20;99.90;;;;;;5027122;28;20131;-84
2023/10/18 05:03:13;;;;;;;4.65;4.35;;;5.90;99.90;;;;;;5037946;28;20132;-84
2023/10/18 05:05:44;;;;;;;4.80;4.50;;;6.20;99.90;;;;;;5012690;28;20039;-85
2023/10/18 05:08:16;;;;;;;4.95;4.65;;;5.90;99.90;;;;;;5028047;28;20059;-85
2023/10/18 05:10:45;;;;;;;4.68;4.38;;;5.90;99.90;;;;;;5062561;28;20525;-85
2023/10/18 05:16:04;;;;;;;4.70;4.40;;;6.00;99.90;;;;;;5026205;28;20106;-83
2023/10/18 05:18:30;;;;;;;;;;;5.90;99.90;;;;;;5030834;28;20180;-85
2023/10/18 05:20:58;;;;;;;4.95;4.65;;;5.90;99.90;;;;;;5014610;28;19994;-85
2023/10/18 05:23:27;;;;;;;4.95;4.65;;;6.00;99.90;;;;;;5028421;28;20102;-85
2023/10/18 05:26:08;;;;;;;5.00;4.70;;;5.90;99.90;;;;;;5051798;28;20052;-85
2023/10/18 05:28:52;;;;;;;4.53;4.22;;;5.80;99.90;;;;;;5038073;28;20072;-85
2023/10/18 05:34:04;;;;;;;4.80;4.50;;;5.80;99.90;;;;;;5028980;28;20091;-85
2023/10/18 05:36:34;;;;;;;4.80;4.50;;;6.10;99.90;;;;;;5032598;28;20080;-85
2023/10/18 05:42:00;;;;;;;4.75;4.45;;;6.10;99.90;;;;;;5029080;28;20525;-85
2023/10/18 05:44:28;;;;;;;4.75;4.45;;;5.80;99.90;;;;;;5006934;28;20049;-84
2023/10/18 05:46:54;;;;;;;4.72;4.43;;;5.90;99.90;;;;;;5039355;28;20855;-85
2023/10/18 05:49:27;;;;;;;4.60;4.30;;;5.90;99.90;;;;;;5027369;28;20059;-85
2023/10/18 05:54:37;;;;;;;4.82;4.53;;;6.10;99.90;;;;;;5062875;28;20102;-84
2023/10/18 05:57:05;;;;;;;4.70;4.40;;;5.90;99.90;;;;;;5012329;28;20040;-86
2023/10/18 06:02:22;;;;;;;4.50;4.20;;;5.90;99.90;;;;;;5065199;28;20498;-84
2023/10/18 06:04:45;;;;;;;4.70;4.40;;;6.00;99.90;;;;;;5023648;28;20135;-84
2023/10/18 06:07:12;;;;;;;4.57;4.28;;;5.80;99.90;;;;;;5025532;28;20148;-84
2023/10/18 06:09:46;;;;;;;4.68;4.38;;;6.00;99.90;;;;;;5030134;28;20179;-85
2023/10/18 06:12:21;;;;;;;4.53;4.22;;;6.00;99.90;;;;;;5029085;28;20148;-85
2023/10/18 06:14:51;;;;;;;4.45;4.15;;;5.90;99.90;;;;;;5063680;28;20041;-85
2023/10/18 06:17:22;;;;;;;4.50;4.20;;;5.90;99.90;;;;;;5031079;28;20123;-85
2023/10/18 06:19:50;;;;;;;4.50;4.20;;;5.80;99.90;;;;;;5063474;28;20658;-85
2023/10/18 06:22:29;;;;;;;4.65;4.25;;;6.00;99.90;;;;;;5028325;28;20410;-84
2023/10/18 06:25:00;;;;;;;4.28;3.97;;;5.80;99.90;;;;;;5045910;28;20059;-86
2023/10/18 06:27:25;;;;;;;4.20;3.90;;;5.90;99.90;;;;;;5015097;28;20075;-85
2023/10/18 06:29:54;;;;;;;4.22;3.92;;;5.90;99.90;;;;;;5026852;28;20072;-85
2023/10/18 06:32:25;;;;;;;4.35;4.05;;;5.90;99.90;;;;;;5025696;28;20487;-85
2023/10/18 06:34:57;;;;;;;4.25;3.95;;;6.10;99.90;;;;;;5026085;28;20048;-85
2023/10/18 06:37:24;;;;;;;4.13;3.85;;;6.00;99.90;;;;;;5017886;28;20758;-85
2023/10/18 06:39:58;;;;;;;3.85;3.65;;;6.00;99.90;;;;;;5032788;28;20513;-86
2023/10/18 06:42:27;;;;;;;4.30;4.00;;;6.20;99.90;;;;;;5031251;28;20060;-84
2023/10/18 06:44:54;;;;;;;4.20;3.90;;;6.00;99.90;;;;;;5014923;28;20045;-83
2023/10/18 06:47:30;;;;;;;3.92;3.72;;;6.10;99.90;;;;;;5030143;28;20057;-85
2023/10/18 06:49:59;;;;;;;3.90;3.67;;;6.20;99.90;;;;;;5031860;28;20080;-86
2023/10/18 06:52:28;;;;;;;3.90;3.70;;;6.20;99.90;;;;;;5013686;28;20040;-85
2023/10/18 06:54:55;;;;;;;4.22;3.92;;;6.20;99.90;;;;;;5033750;28;20037;-86
2023/10/18 06:57:35;;;;;;;3.70;3.50;;;6.30;99.90;;;;;;5026022;28;20502;-84
2023/10/18 07:00:07;;;;;;;3.95;3.70;;;6.30;99.90;;;;;;5010350;28;20410;-85
2023/10/18 07:02:32;;;;;;;3.90;3.70;;;6.40;99.90;;;;;;5026018;28;20055;-87
2023/10/18 07:05:00;;;;;;;3.72;3.53;;;6.50;99.90;;;;;;5032094;28;20049;-85
2023/10/18 07:07:26;;;;;;;3.70;3.50;;;6.50;99.90;;;;;;5026457;28;20052;-82
2023/10/18 07:09:53;;;;;;;4.30;4.00;;;6.50;99.90;;;;;;5025035;28;20132;-86
2023/10/18 07:12:28;;;;;;;3.63;3.42;;;6.60;99.90;;;;;;5028123;28;20045;-84
2023/10/18 07:14:57;;;;;;;3.63;3.42;;;6.50;99.90;;;;;;5036204;28;20052;-86
2023/10/18 07:17:24;;;;;;;3.63;3.42;;;6.60;99.90;;;;;;5035590;28;20067;-85
2023/10/18 07:19:56;;;;;;;3.47;3.28;;;6.60;99.90;;;;;;5064836;28;20041;-87
2023/10/18 07:23:17;;;;;;;3.42;3.22;;;6.60;99.90;;;;;;5028934;28;20045;-85
2023/10/18 07:25:08;;;;;;;3.53;3.33;;;6.70;99.90;;;;;;5030571;28;20529;-84
2023/10/18 07:27:36;;;;;;;3.42;3.22;;;6.80;99.90;;;;;;5030342;28;20072;-85
2023/10/18 07:30:02;;;;;;;3.42;3.22;;;6.80;99.90;;;;;;5029376;28;20115;-85
2023/10/18 07:32:28;;;;;;;3.53;3.33;;;6.90;99.90;;;;;;5028050;28;20043;-82
2023/10/18 07:34:57;;;;;;;3.40;3.20;;;6.90;99.90;;;;;;5031418;28;20080;-83
2023/10/18 07:37:41;;;;;;;3.40;3.20;;;7.00;99.90;;;;;;5038053;28;20110;-86
2023/10/18 07:40:11;;;;;;;;;;;7.00;99.90;;;;;;5018007;28;20087;-86
2023/10/18 07:42:42;;;;;;;3.75;3.55;;;7.10;99.90;;;;;;5027871;28;19986;-85
2023/10/18 07:45:08;;;;;;;3.45;3.25;;;7.10;99.90;;;;;;5028375;28;20052;-85
2023/10/18 07:47:43;;;;;;;3.70;3.50;;;7.10;99.90;;;;;;5032110;28;20040;-84
2023/10/18 07:52:54;;;;;;;3.53;3.33;;;7.20;99.90;;;;;;5025819;28;20060;-88
2023/10/18 07:55:21;;;;;;;3.15;2.95;;;7.30;99.90;;;;;;5029766;28;20041;-87
2023/10/18 07:57:48;;;;;;;3.25;3.05;;;7.30;99.90;;;;;;5032969;28;20555;-83
2023/10/18 08:00:23;;;;;;;3.35;3.15;;;7.30;99.90;;;;;;5038519;28;20073;-86
2023/10/18 08:02:52;;;;;;;3.28;3.08;;;7.40;99.90;;;;;;5023854;28;20045;-82
2023/10/18 08:05:19;;;;;;;3.95;3.70;;;7.40;99.90;;;;;;5031916;28;20406;-85
2023/10/18 08:08:04;;;;;;;3.75;3.55;;;7.50;99.90;;;;;;5022861;28;20044;-84
2023/10/18 08:10:32;;;;;;;3.70;3.50;;;7.50;99.90;;;;;;5040264;28;20060;-83
2023/10/18 08:13:06;;;;;;;3.95;3.70;;;7.60;99.90;;;;;;5027623;28;20522;-84
2023/10/18 08:15:36;;;;;;;6.15;5.82;;;7.60;99.90;;;;;;5034273;28;20141;-86
2023/10/18 08:18:18;;;;;;;3.55;3.35;;;7.80;99.90;;;;;;5012225;28;20048;-84
2023/10/18 08:26:04;;;;;;;3.75;3.55;;;8.00;99.90;;;;;;5030759;28;20082;-87
2023/10/18 08:28:38;;;;;;;4.38;4.07;;;8.10;99.90;;;;;;5033850;28;20464;-86
2023/10/18 08:31:26;;;;;;;4.85;4.55;;;8.10;99.90;;;;;;5033296;28;20051;-85
2023/10/18 08:33:56;;;;;;;5.53;5.13;;;8.10;99.90;;;;;;5036830;28;20056;-84
2023/10/18 08:36:31;;;;;;;5.25;4.93;;;8.20;99.90;;;;;;5031787;28;20293;-83
2023/10/18 08:39:01;;;;;;;5.50;5.13;;;8.30;99.90;;;;;;5033054;28;20698;-86
2023/10/18 08:41:32;;;;;;;5.78;5.38;;;8.40;99.90;;;;;;5061875;28;20049;-85
2023/10/18 08:44:16;;;;;;;5.53;5.13;;;8.40;99.90;;;;;;5031121;28;20563;-84
2023/10/18 08:46:43;;;;;;;;;;;8.50;99.90;;;;;;5028290;28;20386;-85
2023/10/18 08:49:13;;;;;;;5.85;5.45;;;8.60;99.90;;;;;;5032098;28;19933;-85
2023/10/18 08:51:44;;;;;;;5.85;5.45;;;8.60;99.90;;;;;;5032550;28;20041;-86
2023/10/18 08:54:17;;;;;;;5.88;5.47;;;8.60;99.90;;;;;;5035139;28;20061;-87
2023/10/18 08:56:47;;;;;;;6.18;5.78;;;8.70;99.90;;;;;;5012155;28;20048;-84
2023/10/18 08:59:18;;;;;;;5.80;5.40;;;8.70;99.90;;;;;;5032163;28;20040;-82
2023/10/18 09:02:11;;;;;;;5.57;5.18;;;8.80;99.90;;;;;;5016618;28;20469;-86
2023/10/18 09:04:37;;;;;;;6.00;5.60;;;8.80;99.90;;;;;;5062542;28;20052;-85
2023/10/18 09:07:21;;;;;;;5.85;5.45;;;8.80;99.90;;;;;;5030832;28;20568;-82
2023/10/18 09:09:57;;;;;;;6.05;5.65;;;8.90;99.90;;;;;;5068476;28;20044;-85
2023/10/18 09:15:35;;;;;;;5.70;5.30;;;9.00;99.90;;;;;;5027043;28;20045;-82
2023/10/18 09:18:05;;;;;;;5.75;5.35;;;9.00;99.90;;;;;;5031135;28;20498;-84
2023/10/18 09:20:31;;;;;;;5.78;5.38;;;9.20;99.90;;;;;;5062319;28;20098;-85
2023/10/18 09:23:02;;;;;;;6.13;5.72;;;9.40;99.90;;;;;;5029555;28;20037;-83
2023/10/18 09:25:28;;;;;;;6.38;5.97;;;9.50;99.90;;;;;;5030303;28;20119;-84
2023/10/18 09:28:10;;;;;;;7.13;6.65;;;9.70;99.90;;;;;;5037206;28;20152;-86
2023/10/18 09:30:36;;;;;;;7.65;7.15;;;9.80;99.90;;;;;;5040489;28;20452;-84
2023/10/18 09:33:02;;;;;;;6.95;6.47;;;9.90;99.90;;;;;;5036477;28;20049;-86
2023/10/18 09:35:29;;;;;;;6.32;5.93;;;9.80;99.90;;;;;;5034677;28;20045;-83
2023/10/18 09:38:03;;;;;;;5.60;5.20;;;9.80;99.90;;;;;;5014745;28;20046;-85
2023/10/18 09:40:29;;;;;;;6.15;5.75;;;9.90;99.90;;;;;;5037064;28;20051;-84
2023/10/18 09:42:55;;;;;;;6.45;6.05;;;10.10;99.90;;;;;;5063399;28;20036;-84
2023/10/18 09:45:21;;;;;;;5.22;4.93;;;10.20;99.90;;;;;;5031078;28;20055;-87
2023/10/18 09:47:49;;;;;;;4.55;4.25;;;10.20;99.90;;;;;;5033366;28;20062;-86
2023/10/18 09:50:23;;;;;;;4.07;3.80;;;10.10;99.90;;;;;;5030407;28;20053;-83
2023/10/18 09:52:56;;;;;;;4.63;4.32;;;10.20;99.90;;;;;;5032517;28;20121;-83
2023/10/18 09:55:28;;;;;;;4.60;4.30;;;10.10;99.90;;;;;;5030016;28;20041;-87
2023/10/18 09:58:02;;;;;;;4.95;4.65;;;10.10;99.90;;;;;;5037801;28;20048;-87
2023/10/18 10:00:30;;;;;;;4.07;3.80;;;10.30;99.90;;;;;;5034636;28;20048;-85
2023/10/18 10:02:57;;;;;;;4.50;4.20;;;10.20;99.90;;;;;;5012883;28;20045;-82
2023/10/18 10:05:25;;;;;;;3.65;3.45;;;10.40;99.90;;;;;;5071646;28;20056;-86
2023/10/18 10:08:01;;;;;;;3.60;3.40;;;10.20;99.90;;;;;;5032035;28;20640;-83
2023/10/18 10:10:46;;;;;;;3.55;3.35;;;10.20;99.90;;;;;;5040598;28;20040;-84
2023/10/18 10:13:18;;;;;;;4.32;4.03;;;10.20;99.90;;;;;;5062258;28;20387;-86
2023/10/18 10:15:48;;;;;;;4.15;3.85;;;10.30;99.90;;;;;;5033089;28;20048;-87
2023/10/18 10:18:16;;;;;;;4.47;4.18;;;10.30;99.90;;;;;;5049491;28;20091;-87
2023/10/18 10:20:46;;;;;;;4.43;4.13;;;10.40;99.90;;;;;;5017378;28;20124;-84
2023/10/18 10:23:15;;;;;;;3.53;3.33;;;10.40;99.90;;;;;;5032738;28;20056;-84
2023/10/18 10:26:11;;;;;;;4.35;4.05;;;10.40;99.90;;;;;;5033865;28;20797;-92
2023/10/18 10:29:10;;;;;;;4.47;4.18;;;10.50;99.90;;;;;;5030310;28;20049;-85
2023/10/18 10:31:58;;;;;;;4.95;4.65;;;10.60;99.90;;;;;;5029602;28;20124;-86
2023/10/18 10:34:36;;;;;;;4.82;4.53;;;10.80;99.90;;;;;;5037250;28;20045;-88
2023/10/18 10:37:11;;;;;;;4.75;4.45;;;10.90;99.90;;;;;;5012720;28;20083;-84
2023/10/18 10:39:44;;;;;;;4.30;4.00;;;10.90;99.90;;;;;;5028133;28;20098;-86
2023/10/18 10:42:52;;;;;;;4.30;4.00;;;10.80;99.90;;;;;;5030637;28;20094;-86
2023/10/18 10:48:15;;;;;;;3.80;3.60;;;10.90;99.90;;;;;;5028628;28;20045;-84
2023/10/18 10:50:45;;;;;;;4.85;4.55;;;10.90;99.90;;;;;;5017511;28;20048;-84
2023/10/18 10:53:29;;;;;;;5.53;5.13;;;11.00;99.90;;;;;;5028975;28;20383;-84
2023/10/18 10:55:55;;;;;;;5.50;5.10;;;11.00;99.90;;;;;;5066883;28;20087;-84
2023/10/18 10:58:31;;;;;;;5.40;5.03;;;11.30;99.90;;;;;;5019054;28;20601;-85
2023/10/18 11:01:04;;;;;;;4.45;4.15;;;11.30;99.90;;;;;;5066439;28;20037;-84
2023/10/18 11:03:43;;;;;;;5.10;4.80;;;11.10;99.90;;;;;;5028325;28;20040;-86
2023/10/18 11:06:10;;;;;;;5.40;5.03;;;11.20;99.90;;;;;;5027687;28;20048;-84
2023/10/18 11:08:36;;;;;;;4.45;4.15;;;11.30;99.90;;;;;;5032024;28;20045;-86
2023/10/18 11:11:06;;;;;;;4.45;4.15;;;11.10;99.90;;;;;;5029297;28;20056;-83
2023/10/18 11:13:36;;;;;;;4.57;4.28;;;11.20;99.90;;;;;;5015217;28;20053;-84
2023/10/18 11:16:03;;;;;;;5.60;5.20;;;11.30;99.90;;;;;;5028035;28;20168;-83
2023/10/18 11:18:34;;;;;;;5.40;5.03;;;11.50;99.90;;;;;;5031657;28;20136;-87
2023/10/18 11:21:12;;;;;;;7.18;6.68;;;11.70;99.90;;;;;;5028983;28;20051;-84
2023/10/18 11:23:38;;;;;;;6.13;5.72;;;11.70;99.90;;;;;;5033288;28;20488;-85
2023/10/18 11:26:19;;;;;;;5.78;5.38;;;11.80;99.90;;;;;;5032257;28;20120;-82
2023/10/18 11:28:46;;;;;;;5.88;5.47;;;11.70;99.90;;;;;;5047252;28;20045;-87
2023/10/18 11:31:13;;;;;;;5.68;5.28;;;11.90;99.90;;;;;;5026412;28;20170;-85
2023/10/18 11:33:54;;;;;;;5.72;5.32;;;11.80;99.90;;;;;;5029582;28;20053;-88
2023/10/18 11:36:21;;;;;;;5.05;4.75;;;11.80;99.90;;;;;;5027762;28;20152;-85
2023/10/18 11:41:35;;;;;;;5.78;5.38;;;11.90;99.90;;;;;;5033035;28;20529;-86
2023/10/18 11:44:07;;;;;;;6.10;5.70;;;11.80;99.90;;;;;;5032084;28;20119;-84
2023/10/18 11:46:49;;;;;;;5.30;4.95;;;11.90;99.90;;;;;;5033515;28;20041;-86
2023/10/18 11:49:22;;;;;;;4.90;4.60;;;11.90;99.90;;;;;;5016831;28;20121;-87
2023/10/18 11:51:49;;;;;;;4.95;4.65;;;11.80;99.90;;;;;;5034785;28;20047;-88
2023/10/18 11:54:30;;;;;;;5.78;5.38;;;11.70;99.90;;;;;;5015902;28;20503;-87
2023/10/18 11:56:56;;;;;;;5.80;5.40;;;11.90;99.90;;;;;;5036105;28;20045;-86
2023/10/18 11:59:26;;;;;;;5.78;5.38;;;11.90;99.90;;;;;;5040177;28;20072;-86
2023/10/18 12:01:57;;;;;;;5.40;5.00;;;12.00;99.90;;;;;;5034821;28;20498;-88
2023/10/18 12:04:37;;;;;;;5.55;5.15;;;12.00;99.90;;;;;;5032368;28;20559;-84
2023/10/18 12:07:03;;;;;;;5.88;5.47;;;12.10;99.90;;;;;;5031280;28;20053;-83
2023/10/18 12:09:42;;;;;;;5.40;5.03;;;12.10;99.90;;;;;;5029819;28;20052;-87
2023/10/18 12:12:12;;;;;;;6.47;6.07;;;12.20;99.90;;;;;;5015490;28;20049;-84
2023/10/18 12:14:41;;;;;;;5.07;4.78;;;12.20;99.90;;;;;;5014226;28;20048;-85
2023/10/18 12:17:07;;;;;;;5.10;4.80;;;12.10;99.90;;;;;;5029859;28;20053;-85
2023/10/18 12:19:35;;;;;;;4.50;4.20;;;12.20;99.90;;;;;;5028057;28;20051;-86
2023/10/18 12:22:01;;;;;;;5.75;5.35;;;12.20;99.90;;;;;;5029825;28;20049;-87
2023/10/18 12:24:33;;;;;;;5.80;5.40;;;12.30;99.90;;;;;;5030861;28;20045;-87
2023/10/18 12:27:12;;;;;;;5.22;4.93;;;12.30;99.90;;;;;;5027972;28;20045;-88
2023/10/18 12:29:43;;;;;;;5.60;5.20;;;12.30;99.90;;;;;;5029828;28;20048;-87
2023/10/18 12:32:30;;;;;;;5.40;5.00;;;12.30;99.90;;;;;;5028264;28;20049;-87
2023/10/18 12:35:06;;;;;;;5.20;4.90;;;12.30;99.90;;;;;;5033414;28;20122;-87
2023/10/18 12:37:40;;;;;;;4.82;4.53;;;12.40;99.90;;;;;;5030537;28;20056;-87
2023/10/18 12:40:27;;;;;;;7.35;6.85;;;12.60;99.90;;;;;;5028245;28;20051;-89
2023/10/18 12:43:05;;;;;;;7.28;6.78;;;12.80;99.90;;;;;;5025935;28;20079;-85
2023/10/18 12:45:52;;;;;;;5.82;5.43;;;13.10;99.90;;;;;;5028125;28;20052;-86
2023/10/18 12:48:23;;;;;;;4.32;4.03;;;12.90;99.90;;;;;;5031540;28;20586;-92
2023/10/18 12:50:53;;;;;;;3.55;3.35;;;13.00;99.90;;;;;;5040682;28;20083;-86
2023/10/18 13:01:33;;;;;;;4.28;3.97;;;12.50;99.90;;;;;;5028128;28;20118;-85
2023/10/18 13:04:06;;;;;;;3.35;3.15;;;12.60;99.90;;;;;;5027149;28;20068;-86
2023/10/18 13:06:41;;;;;;;5.00;4.70;;;12.70;99.90;;;;;;5032480;28;20167;-84
2023/10/18 13:09:19;;;;;;;3.58;3.38;;;12.70;99.90;;;;;;5013440;28;20102;-86
2023/10/18 13:14:31;;;;;;;3.63;3.42;;;12.90;99.90;;;;;;5035672;28;20049;-84
2023/10/18 13:16:58;;;;;;;3.55;3.35;;;13.00;99.90;;;;;;5038378;28;20573;-85
2023/10/18 13:19:25;;;;;;;3.38;3.17;;;12.90;99.90;;;;;;5047802;28;20058;-88
2023/10/18 13:21:51;;;;;;;3.55;3.35;;;12.90;99.90;;;;;;5034722;28;20102;-83
2023/10/18 13:24:17;;;;;;;3.70;3.50;;;13.00;99.90;;;;;;5030886;28;20048;-84
2023/10/18 13:26:47;;;;;;;3.85;3.65;;;12.80;99.90;;;;;;5035144;28;20045;-86
2023/10/18 13:31:45;;;;;;;4.05;3.78;;;12.90;99.90;;;;;;5035898;28;20494;-86
2023/10/18 13:34:20;;;;;;;2.97;2.78;;;13.00;99.90;;;;;;5052586;28;20076;-88
2023/10/18 13:36:50;;;;;;;2.95;2.75;;;13.00;99.90;;;;;;5066476;28;20048;-86
2023/10/18 13:39:17;;;;;;;2.75;2.58;;;12.90;99.90;;;;;;5018305;28;20053;-86
2023/10/18 13:41:47;;;;;;;2.92;2.72;;;12.90;99.90;;;;;;5054676;28;20124;-85
2023/10/18 13:44:19;;;;;;;2.42;2.33;;;12.90;99.90;;;;;;5031102;28;20506;-84
2023/10/18 13:46:55;;;;;;;3.13;2.92;;;12.70;99.90;;;;;;5030069;28;20494;-85
2023/10/18 13:49:24;;;;;;;2.97;2.78;;;12.60;99.90;;;;;;5029093;28;20099;-88
2023/10/18 13:51:51;;;;;;;2.60;2.50;;;12.60;99.90;;;;;;5028797;28;20770;-86
2023/10/18 13:54:16;;;;;;;2.88;2.67;;;12.50;99.90;;;;;;5063516;28;20677;-83
2023/10/18 13:56:43;;;;;;;2.65;2.55;;;12.50;99.90;;;;;;5037343;28;20047;-88
2023/10/18 13:59:10;;;;;;;3.33;3.13;;;12.30;99.90;;;;;;5060120;28;20128;-86
2023/10/18 14:01:38;;;;;;;2.45;2.35;;;12.30;99.90;;;;;;5051241;28;20102;-88
2023/10/18 14:04:05;;;;;;;2.58;2.47;;;12.20;99.90;;;;;;5038577;28;20044;-84
2023/10/18 14:06:34;;;;;;;3.20;3.00;;;12.20;99.90;;;;;;5029933;28;20059;-86
2023/10/18 14:09:04;;;;;;;2.50;2.40;;;12.20;99.90;;;;;;5028720;28;20049;-88
2023/10/18 14:11:30;;;;;;;3.13;2.92;;;12.10;99.90;;;;;;5029697;28;20509;-85